createdAt,value
2022-08-17T00:03:23.302Z,17.84
2022-08-17T00:07:20.305Z,17.58
2022-08-17T00:11:38.156Z,17.77
2022-08-17T00:15:35.340Z,17.63
2022-08-17T00:19:33.127Z,17.47
2022-08-17T00:23:30.564Z,17.16
2022-08-17T00:27:27.579Z,17.20
2022-08-17T00:31:25.343Z,16.95
2022-08-17T00:35:25.421Z,17.28
2022-08-17T00:39:22.394Z,17.12
2022-08-17T00:43:36.876Z,17.24
2022-08-17T00:47:34.109Z,17.25
2022-08-17T00:51:57.011Z,17.23
2022-08-17T00:55:54.847Z,17.10
2022-08-17T01:00:09.725Z,17.13
2022-08-17T01:04:07.920Z,17.29
2022-08-17T01:08:13.674Z,17.29
2022-08-17T01:12:12.549Z,17.13
2022-08-17T01:16:18.778Z,17.21
2022-08-17T01:20:16.992Z,17.05
2022-08-17T01:24:14.675Z,16.83
2022-08-17T01:28:11.706Z,16.79
2022-08-17T01:32:30.549Z,16.75
2022-08-17T01:36:28.308Z,16.85
2022-08-17T01:40:43.273Z,16.34
2022-08-17T01:44:40.293Z,16.56
2022-08-17T01:48:39.267Z,16.83
2022-08-17T01:52:36.717Z,16.96
2022-08-17T01:56:38.742Z,16.27
2022-08-17T02:00:51.760Z,16.00
2022-08-17T02:04:56.778Z,16.32
2022-08-17T02:09:02.773Z,16.42
2022-08-17T02:13:03.922Z,16.43
2022-08-17T02:17:00.933Z,16.26
2022-08-17T02:20:57.942Z,16.27
2022-08-17T02:24:58.655Z,16.29
2022-08-17T02:28:58.811Z,15.88
2022-08-17T02:32:56.400Z,16.17
2022-08-17T02:36:53.729Z,15.97
2022-08-17T02:40:50.920Z,16.04
2022-08-17T02:44:48.090Z,15.66
2022-08-17T02:48:45.149Z,15.77
2022-08-17T02:52:45.040Z,15.97
2022-08-17T02:56:54.304Z,15.86
2022-08-17T03:00:51.321Z,15.73
2022-08-17T03:04:48.368Z,15.89
2022-08-17T03:08:45.363Z,15.75
2022-08-17T03:12:43.618Z,15.90
2022-08-17T03:16:41.353Z,15.85
2022-08-17T03:20:39.791Z,15.69
2022-08-17T03:24:36.802Z,15.53
2022-08-17T03:28:33.981Z,15.66
2022-08-17T03:32:37.048Z,15.79
2022-08-17T03:36:36.081Z,15.66
2022-08-17T03:40:55.728Z,15.51
2022-08-17T03:44:52.448Z,15.47
2022-08-17T03:49:13.676Z,15.62
2022-08-17T03:53:35.813Z,15.50
2022-08-17T03:57:32.904Z,15.49
2022-08-17T04:01:29.997Z,15.40
2022-08-17T04:05:27.032Z,15.55
2022-08-17T04:09:24.053Z,15.57
2022-08-17T04:13:24.982Z,15.66
2022-08-17T04:17:27.962Z,15.68
2022-08-17T04:21:24.951Z,15.79
2022-08-17T04:25:22.451Z,15.47
2022-08-17T04:29:20.351Z,15.84
2022-08-17T04:33:21.971Z,15.70
2022-08-17T04:37:19.011Z,15.75
2022-08-17T04:41:35.018Z,15.75
2022-08-17T04:45:32.729Z,15.90
2022-08-17T04:49:29.833Z,15.75
2022-08-17T04:53:27.997Z,15.78
2022-08-17T04:57:25.036Z,15.62
2022-08-17T05:01:24.872Z,15.68
2022-08-17T05:05:28.104Z,15.82
2022-08-17T05:09:25.175Z,16.06
2022-08-17T05:13:26.695Z,16.22
2022-08-17T05:17:23.776Z,16.36
2022-08-17T05:21:23.015Z,16.37
2022-08-17T05:25:27.715Z,16.52
2022-08-17T05:29:35.329Z,16.58
2022-08-17T05:33:40.415Z,16.80
2022-08-17T05:37:39.687Z,16.71
2022-08-17T05:41:36.697Z,16.82
2022-08-17T05:45:55.245Z,17.30
2022-08-17T05:49:54.279Z,17.44
2022-08-17T05:54:14.104Z,17.77
2022-08-17T05:58:34.331Z,17.96
2022-08-17T06:03:08.253Z,18.26
2022-08-17T06:07:34.234Z,18.28
2022-08-17T06:12:03.642Z,18.64
2022-08-17T06:16:34.246Z,18.83
2022-08-17T06:20:56.462Z,19.11
2022-08-17T06:25:02.473Z,19.47
2022-08-17T06:29:31.273Z,19.60
2022-08-17T06:33:37.463Z,19.87
2022-08-17T06:38:21.837Z,20.15
2022-08-17T06:43:06.517Z,20.31
2022-08-17T06:47:13.695Z,20.29
2022-08-17T06:51:23.900Z,20.62
2022-08-17T06:55:51.127Z,20.82
2022-08-17T06:59:56.740Z,20.92
2022-08-17T07:04:11.735Z,21.21
2022-08-17T07:08:27.723Z,21.39
2022-08-17T07:12:37.541Z,21.52
2022-08-17T07:16:50.542Z,21.82
2022-08-17T07:20:56.100Z,22.03
2022-08-17T07:24:58.439Z,22.21
2022-08-17T07:28:58.271Z,22.43
2022-08-17T07:32:57.940Z,22.80
2022-08-17T07:37:05.383Z,23.02
2022-08-17T07:41:10.781Z,23.31
2022-08-17T07:45:28.965Z,23.53
2022-08-17T07:49:32.195Z,23.86
2022-08-17T07:53:32.024Z,24.06
2022-08-17T07:57:36.259Z,24.46
2022-08-17T08:01:39.375Z,24.80
2022-08-17T08:06:02.062Z,25.48
2022-08-17T08:10:13.017Z,26.81
2022-08-17T08:14:29.622Z,27.89
2022-08-17T08:18:54.606Z,28.36
2022-08-17T08:23:37.356Z,29.36
2022-08-17T08:28:12.836Z,30.08
2022-08-17T08:32:29.518Z,30.81
2022-08-17T08:37:16.544Z,31.29
2022-08-17T08:41:40.660Z,31.65
2022-08-17T08:45:46.000Z,32.74
2022-08-17T08:50:37.071Z,33.00
2022-08-17T08:54:44.466Z,32.68
2022-08-17T08:59:07.832Z,33.11
2022-08-17T09:03:36.531Z,34.37
2022-08-17T09:07:59.889Z,34.76
2022-08-17T09:12:09.850Z,35.92
2022-08-17T09:16:57.762Z,36.30
2022-08-17T09:21:02.262Z,35.75
2022-08-17T09:25:10.904Z,35.72
2022-08-17T09:29:13.189Z,35.75
2022-08-17T09:33:15.769Z,34.92
2022-08-17T09:37:22.539Z,36.09
2022-08-17T09:41:49.481Z,36.69
2022-08-17T09:45:57.307Z,37.10
2022-08-17T09:50:08.967Z,37.94
2022-08-17T09:54:44.613Z,38.10
2022-08-17T09:59:17.330Z,37.42
2022-08-17T10:04:02.416Z,38.79
2022-08-17T10:08:23.022Z,39.01
2022-08-17T10:12:40.085Z,38.37
2022-08-17T10:17:02.469Z,37.35
2022-08-17T10:21:34.130Z,38.18
2022-08-17T10:25:55.906Z,38.43
2022-08-17T10:30:01.333Z,38.04
2022-08-17T10:34:25.965Z,38.84
2022-08-17T10:39:07.115Z,40.37
2022-08-17T10:44:36.563Z,40.45
2022-08-17T10:48:29.905Z,39.34
2022-08-17T10:52:48.699Z,39.74
2022-08-17T10:56:51.123Z,39.49
2022-08-17T11:00:54.237Z,39.90
2022-08-17T11:05:07.624Z,41.01
2022-08-17T11:09:51.680Z,41.71
2022-08-17T11:14:33.801Z,41.68
2022-08-17T11:19:14.931Z,41.03
2022-08-17T11:23:29.960Z,40.94
2022-08-17T11:27:36.310Z,42.33
2022-08-17T11:31:43.773Z,41.15
2022-08-17T11:35:55.183Z,40.69
2022-08-17T11:40:27.309Z,41.14
2022-08-17T11:45:07.096Z,41.31
2022-08-17T11:49:37.523Z,40.91
2022-08-17T11:53:37.621Z,40.41
2022-08-17T11:57:40.468Z,41.27
2022-08-17T12:01:56.755Z,41.57
2022-08-17T12:06:42.451Z,41.04
2022-08-17T12:11:10.745Z,40.43
2022-08-17T12:15:17.473Z,38.81
2022-08-17T12:19:21.779Z,39.12
2022-08-17T12:24:05.401Z,39.82
2022-08-17T12:28:05.947Z,41.07
2022-08-17T12:32:07.234Z,41.54
2022-08-17T12:36:08.777Z,40.25
2022-08-17T12:40:23.329Z,42.25
2022-08-17T12:44:35.956Z,43.67
2022-08-17T12:48:59.052Z,43.48
2022-08-17T12:53:01.921Z,43.07
2022-08-17T12:57:12.019Z,43.50
2022-08-17T13:01:16.076Z,43.43
2022-08-17T13:05:40.510Z,43.93
2022-08-17T13:09:40.452Z,44.72
2022-08-17T13:13:43.639Z,43.03
2022-08-17T13:17:40.663Z,40.82
2022-08-17T13:21:50.454Z,39.33
2022-08-17T13:26:05.474Z,37.56
2022-08-17T13:30:12.266Z,37.68
2022-08-17T13:34:24.010Z,38.22
2022-08-17T13:38:49.603Z,38.26
2022-08-17T13:42:55.758Z,38.49
2022-08-17T13:46:56.915Z,39.07
2022-08-17T13:50:57.422Z,39.01
2022-08-17T13:54:55.615Z,38.59
2022-08-17T13:59:53.062Z,38.75
2022-08-17T14:03:44.477Z,38.14
2022-08-17T14:07:41.847Z,37.08
2022-08-17T14:11:38.926Z,36.93
2022-08-17T14:15:55.201Z,37.94
2022-08-17T14:19:53.199Z,39.42
2022-08-17T14:23:54.611Z,41.77
2022-08-17T14:27:53.967Z,43.29
2022-08-17T14:31:54.177Z,42.61
2022-08-17T14:35:53.630Z,42.82
2022-08-17T14:39:50.873Z,42.33
2022-08-17T14:43:48.018Z,41.21
2022-08-17T14:47:45.096Z,39.69
2022-08-17T14:51:44.110Z,38.65
2022-08-17T14:55:41.488Z,40.23
2022-08-17T14:59:38.577Z,42.18
2022-08-17T15:03:35.658Z,43.49
2022-08-17T15:07:32.669Z,43.29
2022-08-17T15:11:29.691Z,42.61
2022-08-17T15:15:28.153Z,41.48
2022-08-17T15:19:25.339Z,40.04
2022-08-17T15:23:25.874Z,38.91
2022-08-17T15:27:32.556Z,37.97
2022-08-17T15:31:32.359Z,37.21
2022-08-17T15:35:32.955Z,37.71
2022-08-17T15:39:29.959Z,38.83
2022-08-17T15:43:33.481Z,38.25
2022-08-17T15:47:30.453Z,38.27
2022-08-17T15:51:33.754Z,38.29
2022-08-17T15:55:33.629Z,39.06
2022-08-17T15:59:31.066Z,39.77
2022-08-17T16:04:01.359Z,40.27
2022-08-17T16:07:45.681Z,40.18
2022-08-17T16:11:46.020Z,39.67
2022-08-17T16:15:56.774Z,39.34
2022-08-17T16:19:55.661Z,38.93
2022-08-17T16:24:05.020Z,38.50
2022-08-17T16:28:10.068Z,37.74
2022-08-17T16:32:15.362Z,37.48
2022-08-17T16:36:12.423Z,36.86
2022-08-17T16:40:10.416Z,35.85
2022-08-17T16:44:07.602Z,34.84
2022-08-17T16:48:07.422Z,35.03
2022-08-17T16:52:10.587Z,35.07
2022-08-17T16:56:07.982Z,34.92
2022-08-17T17:00:09.478Z,34.87
2022-08-17T17:04:10.835Z,34.58
2022-08-17T17:08:26.409Z,34.27
2022-08-17T17:12:58.141Z,33.94
2022-08-17T17:17:06.165Z,33.27
2022-08-17T17:21:06.390Z,33.13
2022-08-17T17:25:45.324Z,32.75
2022-08-17T17:30:12.370Z,32.42
2022-08-17T17:34:16.660Z,32.40
2022-08-17T17:38:28.990Z,32.21
2022-08-17T17:42:31.680Z,31.86
2022-08-17T17:46:38.051Z,31.62
2022-08-17T17:51:05.083Z,31.19
2022-08-17T17:55:13.235Z,30.80
2022-08-17T17:59:32.851Z,30.36
2022-08-17T18:04:08.357Z,30.05
2022-08-17T18:08:33.851Z,29.84
2022-08-17T18:12:45.805Z,29.55
2022-08-17T18:16:46.543Z,29.37
2022-08-17T18:20:53.997Z,29.02
2022-08-17T18:24:58.261Z,28.71
2022-08-17T18:28:55.385Z,28.32
2022-08-17T18:32:52.591Z,28.13
2022-08-17T18:36:50.065Z,27.82
2022-08-17T18:41:02.201Z,27.67
2022-08-17T18:44:59.235Z,27.39
2022-08-17T18:49:24.234Z,27.14
2022-08-17T18:53:41.093Z,26.83
2022-08-17T18:57:43.231Z,26.60
2022-08-17T19:01:59.299Z,26.51
2022-08-17T19:06:28.354Z,26.37
2022-08-17T19:10:46.176Z,26.12
2022-08-17T19:14:44.451Z,26.11
2022-08-17T19:19:02.186Z,26.14
2022-08-17T19:23:24.379Z,26.09
2022-08-17T19:27:46.452Z,25.94
2022-08-17T19:31:46.823Z,25.89
2022-08-17T19:35:57.460Z,25.60
2022-08-17T19:40:52.295Z,25.75
2022-08-17T19:45:33.125Z,25.67
2022-08-17T19:49:54.598Z,25.70
2022-08-17T19:54:06.013Z,25.56
2022-08-17T19:58:39.829Z,25.45
2022-08-17T20:02:51.935Z,25.30
2022-08-17T20:06:49.778Z,25.25
2022-08-17T20:10:56.702Z,25.25
2022-08-17T20:15:04.167Z,25.19
2022-08-17T20:19:08.724Z,25.02
2022-08-17T20:23:33.260Z,24.92
2022-08-17T20:27:37.082Z,24.75
2022-08-17T20:32:14.750Z,24.47
2022-08-17T20:36:11.647Z,24.37
2022-08-17T20:40:09.397Z,24.21
2022-08-17T20:44:06.834Z,24.06
2022-08-17T20:48:36.851Z,23.95
2022-08-17T20:52:55.719Z,23.89
2022-08-17T20:56:56.477Z,23.79
2022-08-17T21:00:56.518Z,23.78
2022-08-17T21:04:54.628Z,23.74
2022-08-17T21:09:17.223Z,23.64
2022-08-17T21:13:15.550Z,23.58
2022-08-17T21:17:48.505Z,23.44
2022-08-17T21:22:25.233Z,23.42
2022-08-17T21:27:03.285Z,23.28
2022-08-17T21:31:09.173Z,23.17
2022-08-17T21:35:28.642Z,23.35
2022-08-17T21:39:40.740Z,23.38
2022-08-17T21:43:47.997Z,23.48
2022-08-17T21:48:14.081Z,23.47
2022-08-17T21:52:17.728Z,23.39
2022-08-17T21:56:29.172Z,23.35
2022-08-17T22:00:32.397Z,23.36
2022-08-17T22:04:36.222Z,23.37
2022-08-17T22:08:33.274Z,23.21
2022-08-17T22:12:30.413Z,23.24
2022-08-17T22:16:29.698Z,23.26
2022-08-17T22:20:27.204Z,23.27
2022-08-17T22:24:25.037Z,23.36
2022-08-17T22:28:43.990Z,23.43
2022-08-17T22:32:46.310Z,23.39
2022-08-17T22:36:43.455Z,23.29
2022-08-17T22:40:40.564Z,23.21
2022-08-17T22:44:48.712Z,23.24
2022-08-17T22:48:57.750Z,23.20
2022-08-17T22:53:32.064Z,23.21
2022-08-17T22:57:48.857Z,23.08
2022-08-17T23:02:11.744Z,22.95
2022-08-17T23:06:11.758Z,23.20
2022-08-17T23:10:09.637Z,23.21
2022-08-17T23:14:06.941Z,23.16
2022-08-17T23:18:04.947Z,23.03
2022-08-17T23:22:06.397Z,23.07
2022-08-17T23:26:03.555Z,23.02
2022-08-17T23:30:00.563Z,22.91
2022-08-17T23:33:59.272Z,22.81
2022-08-17T23:37:56.367Z,22.90
2022-08-17T23:41:53.671Z,22.75
2022-08-17T23:45:50.804Z,22.79
2022-08-17T23:49:49.061Z,22.61
2022-08-17T23:53:58.251Z,22.58
2022-08-17T23:57:55.295Z,22.53
